Time;durP1;ratioP1;P1;durP2;ratioP2;P2;SDS_P1;SDS_P2;PMS_P1;PMS_P2;Temp;Humidity;BMP_temperature;BMP_pressure;BME280_temperature;BME280_humidity;BME280_pressure;Samples;Min_cycle;Max_cycle;Signal;HPM_P1;HPM_P2
2021/07/06 00:00:28;;;;;;;4.97;2.30;;;;;;;21.94;51.06;99529.50;5024701;28;20055;-69
2021/07/06 00:02:54;;;;;;;4.53;2.17;;;;;;;21.96;51.36;99540.75;5041383;28;20040;-69
2021/07/06 00:05:20;;;;;;;5.70;2.03;;;;;;;21.96;51.22;99532.72;5026524;28;20029;-69
2021/07/06 00:07:46;;;;;;;3.92;1.90;;;;;;;21.96;51.14;99530.06;5058366;28;20033;-69
2021/07/06 00:10:13;;;;;;;3.63;1.58;;;;;;;21.96;51.33;99524.72;5059454;28;20123;-69
2021/07/06 00:12:38;;;;;;;3.67;1.80;;;;;;;21.96;50.91;99527.41;5047507;28;20550;-69
2021/07/06 00:15:06;;;;;;;4.63;2.00;;;;;;;21.95;51.33;99517.78;5059639;28;20065;-69
2021/07/06 00:17:31;;;;;;;4.03;1.77;;;;;;;21.96;51.10;99514.03;5043512;28;20039;-69
2021/07/06 00:19:57;;;;;;;4.78;2.00;;;;;;;21.96;51.04;99519.38;5060772;28;20033;-69
2021/07/06 00:22:22;;;;;;;4.10;2.13;;;;;;;21.95;51.08;99515.09;5019171;28;20043;-68
2021/07/06 00:24:48;;;;;;;3.28;1.83;;;;;;;21.96;51.03;99521.25;5058741;28;20059;-68
2021/07/06 00:27:14;;;;;;;4.43;1.70;;;;;;;21.96;51.33;99510.56;5065432;28;20036;-69
2021/07/06 00:29:40;;;;;;;4.45;2.10;;;;;;;21.97;51.30;99514.84;5049690;28;20395;-68
2021/07/06 00:32:06;;;;;;;4.60;1.92;;;;;;;21.98;51.33;99511.13;5046509;28;20029;-69
2021/07/06 00:34:31;;;;;;;3.17;1.60;;;;;;;21.98;51.66;99511.94;5025241;28;20037;-69
2021/07/06 00:36:57;;;;;;;3.78;1.83;;;;;;;21.98;51.65;99511.13;5061790;28;20036;-68
2021/07/06 00:39:22;;;;;;;2.78;1.60;;;;;;;21.98;51.92;99503.13;5054708;28;20029;-68
2021/07/06 00:41:48;;;;;;;3.15;1.55;;;;;;;21.99;52.14;99502.06;5031961;28;20175;-69
2021/07/06 00:44:19;;;;;;;4.38;1.90;;;;;;;21.96;51.83;99503.38;5061712;28;20043;-68
2021/07/06 00:46:44;;;;;;;3.50;1.60;;;;;;;21.98;51.87;99490.56;5065721;28;20477;-68
2021/07/06 00:49:11;;;;;;;5.57;2.00;;;;;;;21.99;51.89;99496.72;5064368;28;20043;-68
2021/07/06 00:51:36;;;;;;;4.03;1.60;;;;;;;21.98;52.38;99485.22;5067184;28;20025;-68
2021/07/06 00:54:03;;;;;;;3.47;1.48;;;;;;;21.99;52.25;99492.19;5062301;28;20051;-68
2021/07/06 00:56:29;;;;;;;7.35;1.70;;;;;;;22.00;52.80;99487.66;5060808;28;20033;-70
2021/07/06 00:58:54;;;;;;;5.15;1.80;;;;;;;21.99;53.11;99481.50;5032282;28;20046;-68
2021/07/06 01:01:20;;;;;;;4.15;1.80;;;;;;;22.00;53.36;99471.63;5018272;28;20339;-68
2021/07/06 01:03:46;;;;;;;6.13;2.13;;;;;;;22.01;53.22;99468.72;5012568;28;20052;-68
2021/07/06 01:06:12;;;;;;;6.13;1.88;;;;;;;22.00;53.60;99474.31;5029277;28;20052;-68
2021/07/06 01:08:38;;;;;;;5.30;1.45;;;;;;;22.00;53.74;99464.44;5066124;28;20284;-68
2021/07/06 01:11:04;;;;;;;3.40;1.42;;;;;;;22.02;53.76;99464.19;5049963;28;20032;-68
2021/07/06 01:13:29;;;;;;;4.07;1.80;;;;;;;22.01;53.69;99465.25;5033881;28;20714;-68
2021/07/06 01:15:55;;;;;;;4.22;1.75;;;;;;;22.02;53.91;99461.50;5040646;28;20063;-68
2021/07/06 01:18:21;;;;;;;4.13;1.77;;;;;;;22.02;54.12;99465.00;5061569;28;20515;-68
2021/07/06 01:20:46;;;;;;;4.65;1.63;;;;;;;22.02;54.26;99465.00;5042611;28;20041;-68
2021/07/06 01:23:15;;;;;;;4.80;1.92;;;;;;;22.02;53.90;99465.00;5050725;28;20066;-68
2021/07/06 01:25:42;;;;;;;4.35;1.70;;;;;;;22.02;54.06;99464.19;5055401;28;20035;-68
2021/07/06 01:28:08;;;;;;;4.10;1.40;;;;;;;22.03;53.86;99457.78;5065628;28;20223;-68
2021/07/06 01:30:35;;;;;;;4.97;1.60;;;;;;;22.02;53.44;99454.31;5064252;28;20044;-68
2021/07/06 01:33:02;;;;;;;3.17;1.40;;;;;;;22.02;53.57;99459.66;5039203;28;20810;-68
2021/07/06 01:35:28;;;;;;;3.50;1.98;;;;;;;22.01;53.55;99447.34;5016550;28;20212;-68
2021/07/06 01:37:56;;;;;;;4.25;1.45;;;;;;;22.02;53.85;99448.16;5040613;28;20120;-68
2021/07/06 01:40:23;;;;;;;3.55;1.42;;;;;;;22.01;53.83;99447.34;5031901;28;20115;-70
2021/07/06 01:42:50;;;;;;;2.60;1.38;;;;;;;22.02;53.69;99442.81;5066216;28;20148;-68
2021/07/06 01:45:19;;;;;;;4.10;1.70;;;;;;;22.02;53.92;99434.81;5024440;28;20504;-68
2021/07/06 01:47:51;;;;;;;4.85;1.80;;;;;;;22.01;53.96;99442.00;5012884;28;20033;-68
2021/07/06 01:50:28;;;;;;;4.72;1.80;;;;;;;21.99;54.08;99430.78;5033679;28;20034;-68
2021/07/06 01:52:57;;;;;;;3.10;1.40;;;;;;;22.02;53.96;99432.94;5039080;28;20370;-68
2021/07/06 01:55:28;;;;;;;2.05;1.00;;;;;;;22.01;53.78;99431.34;5029919;28;20037;-68
2021/07/06 01:57:55;;;;;;;3.83;1.60;;;;;;;22.02;53.69;99438.28;5057780;28;20087;-68
2021/07/06 02:00:23;;;;;;;4.13;1.50;;;;;;;22.03;53.60;99436.41;5037185;28;20145;-68
2021/07/06 02:02:49;;;;;;;3.40;1.40;;;;;;;22.02;53.34;99442.81;5033787;28;20492;-68
2021/07/06 02:05:16;;;;;;;3.35;1.60;;;;;;;22.02;53.69;99448.97;5035512;28;20075;-68
2021/07/06 02:07:42;;;;;;;3.42;1.30;;;;;;;22.02;53.29;99440.16;5030085;28;20047;-70
2021/07/06 02:10:08;;;;;;;3.60;1.48;;;;;;;22.02;53.14;99437.47;5049076;28;20041;-68
2021/07/06 02:12:35;;;;;;;2.92;1.25;;;;;;;22.00;53.14;99445.75;5047797;28;20051;-69
2021/07/06 02:15:00;;;;;;;2.70;1.70;;;;;;;22.00;52.34;99445.75;5047572;28;20484;-68
2021/07/06 02:17:27;;;;;;;6.38;1.50;;;;;;;21.99;52.64;99446.78;5030831;28;20121;-67
2021/07/06 02:19:53;;;;;;;4.72;1.73;;;;;;;21.99;52.23;99444.13;5036645;28;20440;-70
2021/07/06 02:22:19;;;;;;;1.98;1.30;;;;;;;21.99;52.08;99452.13;5010921;28;20444;-68
2021/07/06 02:24:45;;;;;;;2.10;1.33;;;;;;;21.99;52.45;99454.00;5040177;28;20049;-68
2021/07/06 02:27:11;;;;;;;3.47;1.30;;;;;;;21.98;52.31;99445.19;5030376;28;20037;-68
2021/07/06 02:29:37;;;;;;;4.03;1.50;;;;;;;21.99;52.04;99454.00;5013721;28;20397;-68
2021/07/06 02:32:03;;;;;;;2.90;1.92;;;;;;;21.99;52.42;99443.31;5030508;28;20425;-68
2021/07/06 02:34:29;;;;;;;2.30;1.35;;;;;;;21.98;52.32;99450.53;5031527;28;20049;-68
2021/07/06 02:36:54;;;;;;;2.83;1.45;;;;;;;22.00;52.65;99444.94;5030410;28;20727;-68
2021/07/06 02:39:20;;;;;;;2.50;1.20;;;;;;;21.99;52.45;99451.31;5044848;28;20368;-68
2021/07/06 02:41:45;;;;;;;1.88;1.20;;;;;;;21.98;52.18;99453.19;5048120;28;20087;-68
2021/07/06 02:44:11;;;;;;;4.13;1.50;;;;;;;21.99;52.16;99448.66;5047937;28;20033;-68
2021/07/06 02:46:36;;;;;;;2.50;1.30;;;;;;;21.98;52.41;99442.50;5030938;28;20505;-70
2021/07/06 02:49:02;;;;;;;2.85;1.30;;;;;;;21.97;52.22;99437.41;5027892;28;20040;-68
2021/07/06 02:51:27;;;;;;;1.70;1.10;;;;;;;21.97;52.01;99434.75;5037549;28;20429;-68
2021/07/06 02:53:53;;;;;;;2.40;1.35;;;;;;;21.94;52.05;99430.72;5035386;28;20362;-68
2021/07/06 02:56:18;;;;;;;2.88;1.40;;;;;;;21.93;52.05;99434.41;5011380;28;20036;-68
2021/07/06 02:58:44;;;;;;;2.75;1.35;;;;;;;21.91;52.08;99431.19;5040254;28;20059;-68
2021/07/06 03:01:09;;;;;;;3.63;1.45;;;;;;;21.92;51.94;99427.44;5048293;28;20574;-68
2021/07/06 03:03:35;;;;;;;2.15;1.30;;;;;;;21.92;51.96;99431.97;5030716;28;20384;-68
2021/07/06 03:06:00;;;;;;;2.70;1.45;;;;;;;21.92;51.79;99432.78;5034567;28;20418;-68
2021/07/06 03:08:29;;;;;;;3.63;1.60;;;;;;;21.91;51.92;99428.50;5048094;28;20081;-68
2021/07/06 03:10:55;;;;;;;2.45;1.40;;;;;;;21.92;51.99;99427.44;5048299;28;20032;-68
2021/07/06 03:13:21;;;;;;;2.92;1.58;;;;;;;21.92;52.09;99413.28;5047746;28;20036;-67
2021/07/06 03:15:46;;;;;;;1.98;1.40;;;;;;;21.93;52.16;99422.91;5048134;28;20039;-68
2021/07/06 03:18:11;;;;;;;2.15;1.27;;;;;;;21.91;51.65;99412.50;5047746;28;20041;-68
2021/07/06 03:20:37;;;;;;;3.05;1.40;;;;;;;21.92;51.69;99416.78;5030545;28;20037;-67
2021/07/06 03:23:03;;;;;;;2.85;1.30;;;;;;;21.92;52.05;99414.09;5041893;28;20369;-68
2021/07/06 03:25:29;;;;;;;3.10;1.50;;;;;;;21.92;51.71;99414.09;5018105;28;20045;-68
2021/07/06 03:27:56;;;;;;;3.42;1.70;;;;;;;21.91;52.10;99409.81;5029285;28;20130;-68
2021/07/06 03:30:24;;;;;;;2.67;1.25;;;;;;;21.93;52.16;99417.56;5029830;28;20043;-68
2021/07/06 03:32:53;;;;;;;2.45;1.30;;;;;;;21.92;51.86;99427.44;5048375;28;20032;-68
2021/07/06 03:35:19;;;;;;;2.08;1.20;;;;;;;21.92;52.05;99423.97;5029675;28;20029;-68
2021/07/06 03:37:45;;;;;;;2.25;1.17;;;;;;;21.92;51.81;99423.97;5030112;28;20049;-68
2021/07/06 03:40:12;;;;;;;2.80;1.10;;;;;;;21.91;51.91;99419.69;5029824;28;20040;-68
2021/07/06 03:42:38;;;;;;;2.15;1.20;;;;;;;21.91;51.85;99427.69;5047577;28;20052;-68
2021/07/06 03:45:06;;;;;;;1.98;1.17;;;;;;;21.90;52.04;99434.91;5029885;28;20029;-68
2021/07/06 03:47:31;;;;;;;2.58;1.52;;;;;;;21.90;51.99;99432.22;5034409;28;20029;-68
2021/07/06 03:49:57;;;;;;;3.38;1.40;;;;;;;21.89;51.94;99441.28;5030096;28;20044;-68
2021/07/06 03:52:22;;;;;;;2.13;1.20;;;;;;;21.88;51.81;99436.22;5047036;28;20472;-68
2021/07/06 03:54:48;;;;;;;2.47;1.10;;;;;;;21.88;51.66;99437.00;5042386;28;20448;-68
2021/07/06 03:57:13;;;;;;;2.17;1.40;;;;;;;21.87;51.70;99438.06;5035383;28;20029;-68
2021/07/06 03:59:39;;;;;;;1.52;1.00;;;;;;;21.88;51.93;99434.34;5029656;28;20055;-68
2021/07/06 04:02:04;;;;;;;2.63;1.30;;;;;;;21.88;51.65;99447.69;5051495;28;20045;-68
2021/07/06 04:04:29;;;;;;;2.97;1.40;;;;;;;21.88;51.94;99442.34;5044557;28;20458;-68
2021/07/06 04:06:55;;;;;;;2.72;1.40;;;;;;;21.88;51.71;99447.69;5038530;28;20052;-68
2021/07/06 04:09:20;;;;;;;2.92;1.30;;;;;;;21.89;51.62;99440.50;5033538;28;20210;-68
2021/07/06 04:11:46;;;;;;;1.70;1.33;;;;;;;21.89;51.95;99437.81;5016751;28;20037;-68
2021/07/06 04:14:12;;;;;;;1.70;1.30;;;;;;;21.89;51.70;99449.31;5051432;28;20503;-68
2021/07/06 04:16:38;;;;;;;2.90;1.20;;;;;;;21.89;51.74;99443.97;5033076;28;20039;-68
2021/07/06 04:19:06;;;;;;;2.25;1.30;;;;;;;21.89;51.93;99443.16;5032913;28;20041;-68
2021/07/06 04:21:33;;;;;;;3.03;1.38;;;;;;;21.88;52.06;99441.53;5033738;28;20852;-68
2021/07/06 04:23:58;;;;;;;2.45;1.35;;;;;;;21.88;51.67;99447.69;5051025;28;20071;-68
2021/07/06 04:26:24;;;;;;;2.60;1.30;;;;;;;21.88;51.93;99442.34;5051190;28;20021;-69
2021/07/06 04:28:50;;;;;;;4.78;1.50;;;;;;;21.88;51.77;99437.00;5050688;28;20047;-68
2021/07/06 04:31:15;;;;;;;2.00;1.40;;;;;;;21.89;51.79;99441.28;5051262;28;20040;-68
2021/07/06 04:33:41;;;;;;;1.85;1.35;;;;;;;21.88;51.95;99439.69;5032278;28;20814;-68
2021/07/06 04:36:06;;;;;;;3.53;1.50;;;;;;;21.88;51.93;99436.22;5051160;28;20033;-68
2021/07/06 04:38:31;;;;;;;2.08;1.35;;;;;;;21.88;52.04;99449.56;5050572;28;20069;-69
2021/07/06 04:40:57;;;;;;;2.42;1.52;;;;;;;21.88;51.68;99438.88;5051085;28;20041;-68
2021/07/06 04:43:23;;;;;;;3.22;1.58;;;;;;;21.87;52.05;99446.06;5032348;28;20025;-69
2021/07/06 04:45:48;;;;;;;1.67;1.40;;;;;;;21.88;51.82;99441.53;5032924;28;20400;-68
2021/07/06 04:48:13;;;;;;;2.85;1.60;;;;;;;21.87;51.74;99440.75;5032351;28;20433;-68
2021/07/06 04:50:39;;;;;;;4.88;1.70;;;;;;;21.86;52.05;99444.47;5016205;28;20409;-68
2021/07/06 04:53:06;;;;;;;2.60;1.60;;;;;;;21.85;51.83;99445.53;5026692;28;20452;-68
2021/07/06 04:55:32;;;;;;;2.03;1.33;;;;;;;21.86;51.72;99439.13;5031455;28;20859;-68
2021/07/06 04:57:58;;;;;;;2.97;1.73;;;;;;;21.85;51.91;99442.84;5036254;28;20108;-68
2021/07/06 05:00:23;;;;;;;3.22;2.03;;;;;;;21.85;51.99;99439.38;5013037;28;20057;-68
2021/07/06 05:02:50;;;;;;;1.85;1.30;;;;;;;21.85;52.20;99431.38;5028437;28;20041;-69
2021/07/06 05:05:15;;;;;;;3.13;1.33;;;;;;;21.85;51.78;99436.69;5042123;28;20040;-68
2021/07/06 05:07:41;;;;;;;2.63;1.65;;;;;;;21.84;51.92;99435.91;5045090;28;20033;-68
2021/07/06 05:10:10;;;;;;;2.22;1.30;;;;;;;21.84;51.92;99435.91;5050238;28;20044;-68
2021/07/06 05:12:35;;;;;;;3.15;1.60;;;;;;;21.83;51.96;99436.94;5050168;28;20212;-68
2021/07/06 05:15:03;;;;;;;2.38;1.40;;;;;;;21.82;52.09;99444.16;5026963;28;20532;-68
2021/07/06 05:17:28;;;;;;;2.40;1.48;;;;;;;21.82;52.14;99438.00;5023805;28;20048;-68
2021/07/06 05:19:54;;;;;;;4.03;1.45;;;;;;;21.81;52.05;99431.84;5031468;28;20037;-68
2021/07/06 05:22:21;;;;;;;2.97;1.50;;;;;;;21.81;51.96;99439.88;5015815;28;20469;-68
2021/07/06 05:24:47;;;;;;;4.47;1.75;;;;;;;21.81;52.22;99436.38;5050355;28;20098;-68
2021/07/06 05:27:12;;;;;;;3.47;1.70;;;;;;;21.81;52.02;99436.38;5015098;28;20040;-68
2021/07/06 05:29:38;;;;;;;3.72;1.80;;;;;;;21.81;52.03;99436.38;5015402;28;20040;-68
2021/07/06 05:32:04;;;;;;;2.42;1.50;;;;;;;21.81;52.24;99433.72;5031667;28;20033;-68
2021/07/06 05:34:29;;;;;;;4.65;1.50;;;;;;;21.81;51.82;99433.72;5015189;28;20028;-68
2021/07/06 05:36:55;;;;;;;2.10;1.67;;;;;;;21.81;52.23;99437.19;5043351;28;20095;-68
2021/07/06 05:39:21;;;;;;;3.78;1.38;;;;;;;21.82;51.92;99432.66;5049807;28;20503;-68
2021/07/06 05:41:47;;;;;;;2.38;1.45;;;;;;;21.82;51.98;99433.47;5031647;28;20752;-68
2021/07/06 05:44:12;;;;;;;2.67;1.50;;;;;;;21.83;52.28;99439.63;5049327;28;20366;-68
2021/07/06 05:46:38;;;;;;;2.15;1.38;;;;;;;21.82;52.06;99438.00;5032276;28;20091;-68
2021/07/06 05:49:04;;;;;;;1.88;1.40;;;;;;;21.82;52.00;99441.47;5014738;28;20033;-68
2021/07/06 05:51:29;;;;;;;3.03;1.77;;;;;;;21.83;52.22;99442.28;5031677;28;20029;-68
2021/07/06 05:53:55;;;;;;;3.53;1.60;;;;;;;21.83;52.07;99444.97;5036007;28;20037;-68
2021/07/06 05:56:20;;;;;;;2.88;1.50;;;;;;;21.83;52.26;99435.09;5012135;28;20120;-68
2021/07/06 05:58:47;;;;;;;2.30;1.42;;;;;;;21.84;52.04;99430.56;5040261;28;20468;-68
2021/07/06 06:01:13;;;;;;;4.15;1.75;;;;;;;21.85;52.26;99442.84;5045048;28;20048;-68
2021/07/06 06:03:38;;;;;;;2.85;1.63;;;;;;;21.85;52.40;99440.19;5037869;28;20037;-68
2021/07/06 06:06:04;;;;;;;2.15;1.70;;;;;;;21.84;52.39;99435.91;5028231;28;20384;-68
2021/07/06 06:08:30;;;;;;;2.08;1.30;;;;;;;21.86;52.44;99446.31;5048233;28;20061;-68
2021/07/06 06:10:55;;;;;;;2.42;1.20;;;;;;;21.85;52.25;99437.50;5030598;28;20477;-69
2021/07/06 06:13:21;;;;;;;3.33;1.48;;;;;;;21.85;51.92;99448.19;5047323;28;20036;-68
2021/07/06 06:15:46;;;;;;;2.50;1.25;;;;;;;21.84;52.21;99446.56;5048899;28;20036;-68
2021/07/06 06:18:12;;;;;;;2.63;1.40;;;;;;;21.83;51.89;99444.97;5047820;28;20680;-68
2021/07/06 06:20:38;;;;;;;3.97;1.35;;;;;;;21.83;51.95;99448.44;5049080;28;20029;-68
2021/07/06 06:23:04;;;;;;;2.47;1.40;;;;;;;21.82;51.97;99436.13;5047452;28;20480;-68
2021/07/06 06:25:30;;;;;;;2.13;1.30;;;;;;;21.83;52.30;99445.75;5031676;28;20021;-68
2021/07/06 06:27:56;;;;;;;2.88;1.48;;;;;;;21.83;52.00;99450.28;5029517;28;20130;-68
2021/07/06 06:30:22;;;;;;;4.40;1.60;;;;;;;21.82;51.93;99449.50;5035396;28;20480;-68
2021/07/06 06:32:47;;;;;;;4.10;1.42;;;;;;;21.82;52.60;99454.03;5031169;28;20488;-70
2021/07/06 06:35:13;;;;;;;3.75;1.42;;;;;;;21.83;52.60;99460.97;5048496;28;20037;-69
2021/07/06 06:37:39;;;;;;;4.88;1.40;;;;;;;21.85;53.03;99456.19;5048466;28;20037;-71
2021/07/06 06:40:07;;;;;;;4.45;1.50;;;;;;;21.86;53.09;99460.47;5028518;28;20080;-68
2021/07/06 06:42:33;;;;;;;3.35;1.50;;;;;;;21.87;52.82;99463.97;5033647;28;20029;-68
2021/07/06 06:44:58;;;;;;;3.80;1.40;;;;;;;21.87;52.97;99455.94;5030855;28;20036;-67
2021/07/06 06:47:24;;;;;;;3.60;1.40;;;;;;;21.86;53.20;99457.81;5030565;28;20040;-67
2021/07/06 06:49:49;;;;;;;5.07;1.40;;;;;;;21.87;53.29;99454.09;5048496;28;20539;-69
2021/07/06 06:52:15;;;;;;;3.08;1.38;;;;;;;21.88;53.12;99457.56;5030523;28;20036;-67
2021/07/06 06:54:40;;;;;;;5.00;1.50;;;;;;;21.88;53.13;99454.91;5011527;28;20037;-67
2021/07/06 06:57:07;;;;;;;5.20;1.23;;;;;;;21.88;52.70;99457.56;5019881;28;20040;-67
2021/07/06 06:59:32;;;;;;;3.88;1.23;;;;;;;21.89;52.94;99461.84;5046398;28;20053;-68
2021/07/06 07:04:42;;;;;;;1.83;1.13;;;;;;;21.88;52.65;99458.38;5044660;28;20825;-66
2021/07/06 07:07:07;;;;;;;4.03;0.95;;;;;;;21.87;52.25;99455.94;5037595;28;20141;-67
2021/07/06 07:09:33;;;;;;;2.58;0.95;;;;;;;21.84;52.09;99454.59;5048382;28;20044;-66
2021/07/06 07:11:58;;;;;;;4.20;1.00;;;;;;;21.83;51.77;99448.44;5047514;28;20392;-66
2021/07/06 07:14:24;;;;;;;6.85;1.08;;;;;;;21.80;51.75;99443.59;5030308;28;20052;-67
2021/07/06 07:16:50;;;;;;;2.22;0.90;;;;;;;21.79;51.48;99455.31;5029930;28;20032;-67
2021/07/06 07:19:16;;;;;;;2.85;1.25;;;;;;;21.77;51.57;99453.91;5048262;28;20037;-67
2021/07/06 07:21:42;;;;;;;2.83;1.10;;;;;;;21.76;51.50;99460.31;5047238;28;20867;-67
2021/07/06 07:24:07;;;;;;;4.00;1.05;;;;;;;21.75;51.57;99459.50;5048191;28;20377;-68
2021/07/06 07:26:32;;;;;;;2.65;0.85;;;;;;;21.76;51.66;99465.66;5047219;28;20095;-69
2021/07/06 07:28:58;;;;;;;2.70;0.80;;;;;;;21.74;51.52;99463.22;5029851;28;20076;-70
2021/07/06 07:31:24;;;;;;;4.20;0.98;;;;;;;21.74;51.44;99473.09;5030159;28;20037;-71
2021/07/06 07:33:49;;;;;;;6.72;1.20;;;;;;;21.72;51.56;99470.69;5047726;28;20029;-70
2021/07/06 07:36:14;;;;;;;8.10;1.73;;;;;;;21.69;51.77;99468.50;5052236;28;20041;-70
2021/07/06 07:38:40;;;;;;;6.65;1.80;;;;;;;21.68;51.35;99476.75;5016092;28;20029;-71
2021/07/06 07:41:06;;;;;;;7.97;2.20;;;;;;;21.67;51.64;99475.13;5012940;28;20555;-68
2021/07/06 07:43:31;;;;;;;8.13;2.05;;;;;;;21.67;51.66;99483.13;5031549;28;20476;-68
2021/07/06 07:45:57;;;;;;;10.57;2.28;;;;;;;21.68;51.81;99479.41;5052151;28;20040;-69
2021/07/06 07:48:22;;;;;;;8.52;2.58;;;;;;;21.67;52.19;99478.63;5051995;28;20468;-69
2021/07/06 07:50:48;;;;;;;15.20;2.80;;;;;;;21.69;52.10;99475.69;5051514;28;20037;-68
2021/07/06 07:53:13;;;;;;;11.23;2.20;;;;;;;21.68;52.34;99476.75;5026317;28;20055;-69
2021/07/06 07:55:39;;;;;;;10.80;2.28;;;;;;;21.69;52.25;99479.19;5020943;28;20072;-68
2021/07/06 07:58:04;;;;;;;13.48;3.33;;;;;;;21.69;52.14;99478.38;5044630;28;20042;-68
2021/07/06 08:00:30;;;;;;;9.07;2.45;;;;;;;21.69;52.61;99478.38;5043429;28;20080;-68
2021/07/06 08:02:59;;;;;;;5.28;1.60;;;;;;;21.70;52.68;99478.13;5051089;28;20037;-68
2021/07/06 08:05:24;;;;;;;10.30;2.05;;;;;;;21.71;52.12;99486.94;5023344;28;20049;-68
2021/07/06 08:07:50;;;;;;;5.85;1.60;;;;;;;21.70;52.38;99483.47;5046396;28;20025;-68
2021/07/06 08:10:15;;;;;;;6.70;1.23;;;;;;;21.70;52.31;99483.47;5032542;28;20179;-67
2021/07/06 08:12:41;;;;;;;4.65;1.20;;;;;;;21.69;52.03;99481.84;5050480;28;20033;-68
2021/07/06 08:15:07;;;;;;;5.13;1.40;;;;;;;21.69;52.07;99484.50;5044285;28;20030;-68
2021/07/06 08:17:33;;;;;;;2.22;0.90;;;;;;;21.67;51.79;99478.63;5042638;28;20047;-68
2021/07/06 08:20:01;;;;;;;5.57;1.27;;;;;;;21.68;51.77;99488.22;5050114;28;20032;-68
2021/07/06 08:22:27;;;;;;;8.15;1.13;;;;;;;21.66;51.86;99486.88;5051422;28;20340;-68
2021/07/06 08:24:53;;;;;;;2.90;0.85;;;;;;;21.64;51.82;99478.28;5051088;28;20037;-67
2021/07/06 08:27:19;;;;;;;3.38;1.00;;;;;;;21.62;51.34;99481.22;5033196;28;20714;-67
2021/07/06 08:29:44;;;;;;;3.92;1.08;;;;;;;21.62;51.25;99477.69;5051198;28;20072;-68
2021/07/06 08:32:10;;;;;;;2.85;0.75;;;;;;;21.60;51.47;99472.59;5051354;28;20036;-68
2021/07/06 08:34:35;;;;;;;1.92;0.77;;;;;;;21.59;51.64;99481.66;5051336;28;20045;-67
2021/07/06 08:37:01;;;;;;;2.08;0.70;;;;;;;21.58;51.46;99480.06;5050597;28;20086;-68
2021/07/06 08:39:26;;;;;;;2.00;0.88;;;;;;;21.57;51.17;99480.28;5051020;28;20144;-68
2021/07/06 08:41:52;;;;;;;1.48;0.63;;;;;;;21.57;51.12;99486.44;5050727;28;20739;-68
2021/07/06 08:44:20;;;;;;;1.23;0.60;;;;;;;21.57;51.24;99477.63;5050675;28;20469;-68
2021/07/06 08:46:48;;;;;;;1.15;0.60;;;;;;;21.57;51.30;99490.97;5050016;28;20125;-68
2021/07/06 08:49:15;;;;;;;1.05;0.57;;;;;;;21.55;51.49;99495.75;5037673;28;20544;-68
2021/07/06 08:51:42;;;;;;;0.85;0.60;;;;;;;21.55;51.59;99487.75;5033645;28;20040;-68
2021/07/06 08:54:08;;;;;;;2.10;0.80;;;;;;;21.53;51.51;99496.78;5049626;28;20040;-68
2021/07/06 08:56:33;;;;;;;2.13;0.52;;;;;;;21.52;51.15;99491.69;5038175;28;20051;-67
2021/07/06 08:58:59;;;;;;;0.90;0.55;;;;;;;21.51;51.36;99492.75;5050644;28;20040;-68
2021/07/06 09:01:28;;;;;;;1.02;0.50;;;;;;;21.50;51.09;99494.63;5050151;28;20060;-68
2021/07/06 09:03:59;;;;;;;2.35;0.60;;;;;;;21.48;51.31;99494.06;5050725;28;20160;-67
2021/07/06 09:06:26;;;;;;;0.82;0.43;;;;;;;21.48;51.40;99487.91;5028794;28;20022;-67
2021/07/06 09:09:19;;;;;;;0.50;0.50;;;;;;;21.43;51.20;99491.28;5041098;28;20072;-67
2021/07/06 09:11:46;;;;;;;1.05;0.50;;;;;;;21.46;51.03;99481.97;5049893;28;20060;-67
2021/07/06 09:14:12;;;;;;;0.52;0.40;;;;;;;21.44;50.99;99484.88;5032182;28;20573;-67
2021/07/06 09:16:38;;;;;;;1.40;0.40;;;;;;;21.43;51.17;99488.59;5050498;28;20043;-67
2021/07/06 09:19:21;;;;;;;0.82;0.50;;;;;;;21.35;51.38;99483.69;5051308;28;20534;-67
2021/07/06 09:21:47;;;;;;;1.17;0.40;;;;;;;21.37;51.15;99497.59;5032163;28;20509;-67
2021/07/06 09:24:26;;;;;;;1.60;0.47;;;;;;;21.35;51.28;99491.69;5050418;28;20097;-67
2021/07/06 09:26:52;;;;;;;2.45;0.70;;;;;;;21.40;51.19;99493.63;5049780;28;20051;-67
2021/07/06 09:29:24;;;;;;;0.40;0.35;;;;;;;21.38;51.29;99496.53;5040135;28;20103;-67
2021/07/06 09:31:50;;;;;;;1.02;0.40;;;;;;;21.37;51.33;99492.25;5047615;28;20125;-67
2021/07/06 09:34:15;;;;;;;0.40;0.40;;;;;;;21.36;51.31;99495.16;5050234;28;20043;-67
2021/07/06 09:36:51;;;;;;;0.70;0.40;;;;;;;21.33;51.25;99495.66;5049788;28;20033;-68
2021/07/06 09:39:24;;;;;;;0.65;0.40;;;;;;;21.35;51.39;99490.88;5050253;28;20109;-67
2021/07/06 09:42:06;;;;;;;0.20;0.20;;;;;;;21.32;51.13;99494.84;5049842;28;20051;-67
2021/07/06 09:44:36;;;;;;;2.65;0.40;;;;;;;21.36;51.12;99493.31;5050071;28;20045;-67
2021/07/06 09:47:09;;;;;;;0.55;0.30;;;;;;;21.36;51.41;99492.50;5049746;28;20029;-67
2021/07/06 09:49:43;;;;;;;0.45;0.30;;;;;;;21.37;51.42;99496.78;5049933;28;20032;-67
2021/07/06 09:52:17;;;;;;;1.15;0.38;;;;;;;21.35;51.36;99502.34;5049326;28;20071;-67
2021/07/06 09:54:44;;;;;;;1.10;0.40;;;;;;;21.36;51.72;99495.97;5029961;28;20068;-67
2021/07/06 10:00:03;;;;;;;1.10;0.30;;;;;;;21.32;51.64;99502.03;5029292;28;20054;-67
2021/07/06 10:02:31;;;;;;;0.30;0.30;;;;;;;21.34;51.67;99499.94;5043509;28;20498;-67
2021/07/06 10:05:04;;;;;;;0.43;0.30;;;;;;;21.33;51.40;99499.13;5030106;28;20065;-67
2021/07/06 10:07:30;;;;;;;0.32;0.30;;;;;;;21.34;51.63;99502.59;5042423;28;20029;-67
2021/07/06 10:09:57;;;;;;;0.40;0.30;;;;;;;21.33;51.46;99492.97;5014580;28;20539;-67
2021/07/06 10:12:24;;;;;;;0.40;0.30;;;;;;;21.33;51.58;99498.31;5048749;28;20037;-67
2021/07/06 10:14:51;;;;;;;1.08;0.52;;;;;;;21.34;51.42;99505.25;5048785;28;20083;-67
2021/07/06 10:17:16;;;;;;;0.55;0.32;;;;;;;21.34;51.40;99505.25;5049300;28;20036;-67
2021/07/06 10:19:44;;;;;;;0.30;0.30;;;;;;;21.34;51.62;99503.41;5048300;28;20123;-67
2021/07/06 10:22:11;;;;;;;0.22;0.22;;;;;;;21.34;51.46;99510.59;5048116;28;20025;-68
2021/07/06 10:24:42;;;;;;;0.65;0.40;;;;;;;21.32;51.72;99513.50;5030356;28;20029;-67
2021/07/06 10:27:23;;;;;;;1.67;0.30;;;;;;;21.32;51.91;99516.19;5034912;28;20037;-67
2021/07/06 10:30:06;;;;;;;0.35;0.30;;;;;;;21.30;51.84;99509.44;5047940;28;20040;-67
2021/07/06 10:32:55;;;;;;;0.65;0.40;;;;;;;21.30;52.10;99523.56;5048249;28;20103;-67
2021/07/06 10:35:40;;;;;;;0.30;0.30;;;;;;;21.29;52.03;99513.97;5047610;28;20060;-67
2021/07/06 10:38:39;;;;;;;0.65;0.40;;;;;;;21.30;52.19;99506.75;5048014;28;20449;-67
2021/07/06 10:41:20;;;;;;;3.35;0.57;;;;;;;21.31;52.08;99509.22;5038436;28;20044;-67
2021/07/06 10:43:46;;;;;;;0.47;0.38;;;;;;;21.34;52.03;99507.94;5046907;28;20061;-67
2021/07/06 10:46:20;;;;;;;0.55;0.35;;;;;;;21.34;52.36;99516.75;5030781;28;20140;-68
2021/07/06 10:48:56;;;;;;;1.02;0.50;;;;;;;21.35;52.11;99517.56;5048504;28;20080;-67
2021/07/06 10:51:33;;;;;;;2.80;0.50;;;;;;;21.32;52.29;99516.19;5048377;28;20044;-67
2021/07/06 10:54:21;;;;;;;0.70;0.50;;;;;;;21.30;52.46;99523.56;5016877;28;20041;-67
2021/07/06 10:56:51;;;;;;;0.65;0.40;;;;;;;21.34;52.24;99519.41;5037275;28;20040;-67
2021/07/06 10:59:26;;;;;;;2.95;0.52;;;;;;;21.33;52.50;99530.31;5046000;28;20036;-67
2021/07/06 11:01:58;;;;;;;0.63;0.32;;;;;;;21.33;52.53;99528.47;5028800;28;20064;-67
2021/07/06 11:04:46;;;;;;;1.35;0.60;;;;;;;21.30;52.46;99520.91;5042563;28;20037;-67
2021/07/06 11:07:14;;;;;;;0.75;0.40;;;;;;;21.35;52.46;99525.56;5033029;28;20716;-67
2021/07/06 11:09:39;;;;;;;0.77;0.50;;;;;;;21.34;52.51;99527.41;5029738;28;20052;-67
2021/07/06 11:12:25;;;;;;;0.90;0.50;;;;;;;21.29;53.18;99532.63;5048402;28;20036;-67
2021/07/06 11:15:16;;;;;;;1.85;0.50;;;;;;;21.28;52.96;99532.88;5048159;28;20013;-67
2021/07/06 11:17:45;;;;;;;0.88;0.50;;;;;;;21.32;53.36;99534.03;5048647;28;20407;-67
2021/07/06 11:20:17;;;;;;;0.70;0.45;;;;;;;21.33;53.51;99531.13;5029846;28;20461;-67
2021/07/06 11:22:51;;;;;;;1.95;0.60;;;;;;;21.31;53.26;99532.41;5048880;28;20336;-67
2021/07/06 11:25:20;;;;;;;1.20;0.70;;;;;;;21.33;53.22;99538.31;5048344;28;20036;-67
2021/07/06 11:28:00;;;;;;;1.80;0.60;;;;;;;21.31;53.52;99533.22;5048346;28;20059;-68
2021/07/06 11:30:33;;;;;;;0.90;0.40;;;;;;;21.34;53.31;99546.09;5047711;28;20029;-67
2021/07/06 11:33:04;;;;;;;0.55;0.47;;;;;;;21.33;53.56;99541.81;5048738;28;20056;-67
2021/07/06 11:35:32;;;;;;;1.42;0.60;;;;;;;21.34;53.69;99543.41;5029878;28;20041;-67
2021/07/06 11:38:04;;;;;;;1.58;0.50;;;;;;;21.33;53.74;99552.47;5048255;28;20064;-67
2021/07/06 11:40:30;;;;;;;2.47;0.63;;;;;;;21.33;54.23;99547.13;5052365;28;20078;-67